createdAt,value
2019-01-30T00:00:35.850Z,998.28
2019-01-30T00:01:35.840Z,998.27
2019-01-30T00:02:35.830Z,998.23
2019-01-30T00:03:35.819Z,998.23
2019-01-30T00:04:35.807Z,998.19
2019-01-30T00:05:35.800Z,998.19
2019-01-30T00:06:35.785Z,998.25
2019-01-30T00:07:35.775Z,998.21
2019-01-30T00:08:35.763Z,998.21
2019-01-30T00:09:35.752Z,998.18
2019-01-30T00:10:35.755Z,998.18
2019-01-30T00:11:35.733Z,998.18
2019-01-30T00:12:35.724Z,998.20
2019-01-30T00:13:35.708Z,998.22
2019-01-30T00:14:35.699Z,998.17
2019-01-30T00:15:35.690Z,998.16
2019-01-30T00:16:35.676Z,998.14
2019-01-30T00:17:35.665Z,998.15
2019-01-30T00:18:35.677Z,998.11
2019-01-30T00:19:35.643Z,998.15
2019-01-30T00:20:35.633Z,998.13
2019-01-30T00:21:35.629Z,998.15
2019-01-30T00:22:35.616Z,998.15
2019-01-30T00:23:35.599Z,998.17
2019-01-30T00:24:35.589Z,998.18
2019-01-30T00:25:35.577Z,998.18
2019-01-30T00:26:35.571Z,998.21
2019-01-30T00:27:35.562Z,998.17
2019-01-30T00:28:35.548Z,998.16
2019-01-30T00:29:35.533Z,998.18
2019-01-30T00:30:35.549Z,998.15
2019-01-30T00:31:35.515Z,998.15
2019-01-30T00:32:35.498Z,998.13
2019-01-30T00:33:35.499Z,998.13
2019-01-30T00:34:35.479Z,998.10
2019-01-30T00:35:35.469Z,998.13
2019-01-30T00:36:35.460Z,998.10
2019-01-30T00:37:35.445Z,998.10
2019-01-30T00:38:35.435Z,998.13
2019-01-30T00:39:35.428Z,998.06
2019-01-30T00:40:35.413Z,998.12
2019-01-30T00:41:35.403Z,998.14
2019-01-30T00:42:35.389Z,998.06
2019-01-30T00:43:35.380Z,998.09
2019-01-30T00:44:35.373Z,998.07
2019-01-30T00:45:35.356Z,998.04
2019-01-30T00:46:35.348Z,998.02
2019-01-30T00:47:35.336Z,998.05
2019-01-30T00:48:35.325Z,998.07
2019-01-30T00:49:35.318Z,998.10
2019-01-30T00:50:35.310Z,998.06
2019-01-30T00:51:35.292Z,998.08
2019-01-30T00:52:35.282Z,998.08
2019-01-30T00:53:35.268Z,998.01
2019-01-30T00:54:35.257Z,998.01
2019-01-30T00:55:35.252Z,998.00
2019-01-30T00:56:35.244Z,998.00
2019-01-30T00:57:35.226Z,998.02
2019-01-30T00:58:35.213Z,997.97
2019-01-30T00:59:35.205Z,997.97
2019-01-30T01:00:35.207Z,997.97
2019-01-30T01:01:35.192Z,997.97
2019-01-30T01:02:35.170Z,998.03
2019-01-30T01:03:35.158Z,998.02
2019-01-30T01:04:35.150Z,997.99
2019-01-30T01:05:35.137Z,997.98
2019-01-30T01:06:35.127Z,998.00
2019-01-30T01:07:35.118Z,997.99
2019-01-30T01:08:35.130Z,997.96
2019-01-30T01:09:35.094Z,997.98
2019-01-30T01:10:35.083Z,997.97
2019-01-30T01:11:35.072Z,997.97
2019-01-30T01:12:35.062Z,997.97
2019-01-30T01:13:35.074Z,998.01
2019-01-30T01:14:35.042Z,998.01
2019-01-30T01:15:35.028Z,998.00
2019-01-30T01:16:35.018Z,997.96
2019-01-30T01:17:35.011Z,997.92
2019-01-30T01:18:34.996Z,997.93
2019-01-30T01:19:34.990Z,997.90
2019-01-30T01:20:34.981Z,997.92
2019-01-30T01:21:34.962Z,997.91
2019-01-30T01:22:34.956Z,997.84
2019-01-30T01:23:34.947Z,997.87
2019-01-30T01:24:34.933Z,997.92
2019-01-30T01:25:34.920Z,997.89
2019-01-30T01:26:34.910Z,997.90
2019-01-30T01:27:34.897Z,997.91
2019-01-30T01:28:34.887Z,997.95
2019-01-30T01:29:34.877Z,997.91
2019-01-30T01:30:34.870Z,997.86
2019-01-30T01:31:34.854Z,997.91
2019-01-30T01:32:34.842Z,997.89
2019-01-30T01:33:34.834Z,997.87
2019-01-30T01:34:34.822Z,997.84
2019-01-30T01:35:34.810Z,997.89
2019-01-30T01:36:34.797Z,997.89
2019-01-30T01:37:34.788Z,997.92
2019-01-30T01:38:34.776Z,997.90
2019-01-30T01:39:34.765Z,997.88
2019-01-30T01:40:34.755Z,997.89
2019-01-30T01:41:34.746Z,997.84
2019-01-30T01:42:34.737Z,997.87
2019-01-30T01:43:34.721Z,997.89
2019-01-30T01:44:34.710Z,997.84
2019-01-30T01:45:34.707Z,997.81
2019-01-30T01:46:34.689Z,997.84
2019-01-30T01:47:34.683Z,997.84
2019-01-30T01:48:34.666Z,997.79
2019-01-30T01:49:34.655Z,997.83
2019-01-30T01:50:34.643Z,997.78
2019-01-30T01:51:34.634Z,997.80
2019-01-30T01:52:34.632Z,997.79
2019-01-30T01:53:34.611Z,997.80
2019-01-30T01:54:34.603Z,997.79
2019-01-30T01:55:34.590Z,997.71
2019-01-30T01:56:34.578Z,997.74
2019-01-30T01:57:34.566Z,997.68
2019-01-30T01:58:34.558Z,997.68
2019-01-30T01:59:34.545Z,997.68
2019-01-30T02:00:35.512Z,997.68
2019-01-30T02:01:34.525Z,997.66
2019-01-30T02:02:34.514Z,997.66
2019-01-30T02:03:34.503Z,997.67
2019-01-30T02:04:34.492Z,997.68
2019-01-30T02:05:34.483Z,997.70
2019-01-30T02:06:34.469Z,997.62
2019-01-30T02:07:34.458Z,997.68
2019-01-30T02:08:34.452Z,997.58
2019-01-30T02:09:34.436Z,997.61
2019-01-30T02:10:35.738Z,997.59
2019-01-30T02:11:34.417Z,997.60
2019-01-30T02:12:34.403Z,997.56
2019-01-30T02:13:34.393Z,997.58
2019-01-30T02:14:34.382Z,997.60
2019-01-30T02:15:34.371Z,997.58
2019-01-30T02:16:34.362Z,997.58
2019-01-30T02:17:34.458Z,997.58
2019-01-30T02:18:34.339Z,997.57
2019-01-30T02:19:34.328Z,997.60
2019-01-30T02:20:34.319Z,997.53
2019-01-30T02:21:34.315Z,997.57
2019-01-30T02:22:34.299Z,997.50
2019-01-30T02:23:34.290Z,997.50
2019-01-30T02:24:34.271Z,997.51
2019-01-30T02:25:34.262Z,997.50
2019-01-30T02:26:34.250Z,997.48
2019-01-30T02:27:34.271Z,997.49
2019-01-30T02:28:34.228Z,997.50
2019-01-30T02:29:34.218Z,997.41
2019-01-30T02:30:34.211Z,997.39
2019-01-30T02:31:34.195Z,997.36
2019-01-30T02:32:34.189Z,997.38
2019-01-30T02:33:34.175Z,997.38
2019-01-30T02:34:34.167Z,997.38
2019-01-30T02:35:34.151Z,997.34
2019-01-30T02:36:34.139Z,997.41
2019-01-30T02:37:34.133Z,997.37
2019-01-30T02:38:34.124Z,997.40
2019-01-30T02:39:34.110Z,997.40
2019-01-30T02:40:34.098Z,997.36
2019-01-30T02:41:34.085Z,997.37
2019-01-30T02:42:34.076Z,997.35
2019-01-30T02:43:34.064Z,997.32
2019-01-30T02:44:34.053Z,997.35
2019-01-30T02:45:34.043Z,997.36
2019-01-30T02:46:34.031Z,997.32
2019-01-30T02:47:34.022Z,997.30
2019-01-30T02:48:34.009Z,997.30
2019-01-30T02:49:33.999Z,997.27
2019-01-30T02:50:35.144Z,997.24
2019-01-30T02:51:33.994Z,997.27
2019-01-30T02:52:33.963Z,997.22
2019-01-30T02:53:33.961Z,997.26
2019-01-30T02:54:33.944Z,997.26
2019-01-30T02:55:33.940Z,997.28
2019-01-30T02:56:33.925Z,997.31
2019-01-30T02:57:33.910Z,997.32
2019-01-30T02:58:33.907Z,997.31
2019-01-30T02:59:33.889Z,997.34
2019-01-30T03:00:33.877Z,997.35
2019-01-30T03:01:33.867Z,997.32
2019-01-30T03:02:33.856Z,997.33
2019-01-30T03:03:33.846Z,997.32
2019-01-30T03:04:33.834Z,997.30
2019-01-30T03:05:33.823Z,997.27
2019-01-30T03:06:33.813Z,997.25
2019-01-30T03:07:33.801Z,997.28
2019-01-30T03:08:33.794Z,997.23
2019-01-30T03:09:33.781Z,997.25
2019-01-30T03:10:33.767Z,997.30
2019-01-30T03:11:33.759Z,997.24
2019-01-30T03:12:33.750Z,997.26
2019-01-30T03:13:33.734Z,997.24
2019-01-30T03:14:33.726Z,997.24
2019-01-30T03:15:33.713Z,997.22
2019-01-30T03:16:33.702Z,997.24
2019-01-30T03:17:33.691Z,997.29
2019-01-30T03:18:33.683Z,997.25
2019-01-30T03:19:33.669Z,997.24
2019-01-30T03:20:33.660Z,997.25
2019-01-30T03:21:33.647Z,997.32
2019-01-30T03:22:33.636Z,997.32
2019-01-30T03:23:33.625Z,997.33
2019-01-30T03:24:33.614Z,997.25
2019-01-30T03:25:33.605Z,997.28
2019-01-30T03:26:33.593Z,997.30
2019-01-30T03:27:33.584Z,997.28
2019-01-30T03:28:33.573Z,997.27
2019-01-30T03:29:33.568Z,997.26
2019-01-30T03:30:33.715Z,997.25
2019-01-30T03:31:33.539Z,997.27
2019-01-30T03:32:33.528Z,997.25
2019-01-30T03:33:33.556Z,997.27
2019-01-30T03:34:33.505Z,997.24
2019-01-30T03:35:33.493Z,997.22
2019-01-30T03:36:33.485Z,997.20
2019-01-30T03:37:33.474Z,997.24
2019-01-30T03:38:33.464Z,997.25
2019-01-30T03:39:33.461Z,997.24
2019-01-30T03:40:33.450Z,997.17
2019-01-30T03:41:33.430Z,997.18
2019-01-30T03:42:33.422Z,997.18
2019-01-30T03:43:33.424Z,997.21
2019-01-30T03:44:33.405Z,997.20
2019-01-30T03:45:33.389Z,997.20
2019-01-30T03:46:33.383Z,997.15
2019-01-30T03:47:33.362Z,997.17
2019-01-30T03:48:33.351Z,997.15
2019-01-30T03:49:33.342Z,997.13
2019-01-30T03:50:33.333Z,997.13
2019-01-30T03:51:33.328Z,997.11
2019-01-30T03:52:33.327Z,997.10
2019-01-30T03:53:33.299Z,997.09
2019-01-30T03:54:33.289Z,997.15
2019-01-30T03:55:33.277Z,997.11
2019-01-30T03:56:33.263Z,997.08
2019-01-30T03:57:33.255Z,997.14
2019-01-30T03:58:33.244Z,997.15
2019-01-30T03:59:33.238Z,997.17
2019-01-30T04:00:33.223Z,997.19
2019-01-30T04:01:33.215Z,997.12
2019-01-30T04:02:33.198Z,997.15
2019-01-30T04:05:02.161Z,997.06
2019-01-30T04:06:22.791Z,997.16
2019-01-30T04:07:44.209Z,997.16
2019-01-30T04:09:03.819Z,997.13
2019-01-30T04:10:26.427Z,997.10
2019-01-30T04:11:47.060Z,997.10
2019-01-30T04:13:08.492Z,997.09
2019-01-30T04:14:28.084Z,997.07
2019-01-30T04:16:01.761Z,997.06
2019-01-30T04:17:01.755Z,997.02
2019-01-30T04:18:01.736Z,997.00
2019-01-30T04:19:01.729Z,997.00
2019-01-30T04:20:01.717Z,996.98
2019-01-30T04:21:01.704Z,996.98
2019-01-30T04:22:01.693Z,996.99
2019-01-30T04:23:01.683Z,996.95
2019-01-30T04:24:01.669Z,996.98
2019-01-30T04:25:01.671Z,996.95
2019-01-30T04:26:01.670Z,996.93
2019-01-30T04:27:01.647Z,996.95
2019-01-30T04:28:01.626Z,996.94
2019-01-30T04:29:01.618Z,996.94
2019-01-30T04:30:01.609Z,996.93
2019-01-30T04:31:01.594Z,996.95
2019-01-30T04:32:01.587Z,996.95
2019-01-30T04:33:01.586Z,996.95
2019-01-30T04:34:01.573Z,996.92
2019-01-30T04:35:01.550Z,996.93
2019-01-30T04:36:01.541Z,996.89
2019-01-30T04:37:01.537Z,996.93
2019-01-30T04:38:21.164Z,996.84
2019-01-30T04:39:43.558Z,996.90
2019-01-30T04:40:43.549Z,996.85
2019-01-30T04:42:03.162Z,996.89
2019-01-30T04:43:25.587Z,996.87
2019-01-30T04:44:25.580Z,996.78
2019-01-30T04:45:25.558Z,996.84
2019-01-30T04:46:25.549Z,996.83
2019-01-30T04:47:25.537Z,996.77
2019-01-30T04:48:25.526Z,996.79
2019-01-30T04:49:25.513Z,996.77
2019-01-30T04:50:25.507Z,996.81
2019-01-30T04:51:25.492Z,996.78
2019-01-30T04:52:25.484Z,996.81
2019-01-30T04:53:25.472Z,996.80
2019-01-30T04:54:25.463Z,996.80
2019-01-30T04:55:25.450Z,996.81
2019-01-30T04:56:25.437Z,996.77
2019-01-30T04:57:25.427Z,996.79
2019-01-30T04:58:25.419Z,996.81
2019-01-30T04:59:25.414Z,996.82
2019-01-30T05:00:25.396Z,996.79
2019-01-30T05:01:25.384Z,996.81
2019-01-30T05:02:25.371Z,996.75
2019-01-30T05:03:25.362Z,996.75
2019-01-30T05:04:25.354Z,996.74
2019-01-30T05:05:25.352Z,996.75
2019-01-30T05:06:25.328Z,996.73
2019-01-30T05:07:25.320Z,996.74
2019-01-30T05:08:25.306Z,996.70
2019-01-30T05:09:25.298Z,996.76
2019-01-30T05:10:25.288Z,996.72
2019-01-30T05:11:25.279Z,996.71
2019-01-30T05:12:25.266Z,996.68
2019-01-30T05:13:25.252Z,996.68
2019-01-30T05:14:25.259Z,996.70
2019-01-30T05:15:25.230Z,996.69
2019-01-30T05:16:25.281Z,996.65
2019-01-30T05:17:25.218Z,996.61
2019-01-30T05:18:25.197Z,996.66
2019-01-30T05:19:25.195Z,996.66
2019-01-30T05:20:25.175Z,996.67
2019-01-30T05:21:25.167Z,996.66
2019-01-30T05:22:25.154Z,996.66
2019-01-30T05:23:25.144Z,996.70
2019-01-30T05:24:25.135Z,996.66
2019-01-30T05:25:25.121Z,996.64
2019-01-30T05:26:25.109Z,996.64
2019-01-30T05:27:25.099Z,996.62
2019-01-30T05:28:25.093Z,996.64
2019-01-30T05:29:25.148Z,996.59
2019-01-30T05:30:25.075Z,996.59
2019-01-30T05:31:25.055Z,996.59
2019-01-30T05:32:25.046Z,996.60
2019-01-30T05:33:25.039Z,996.55
2019-01-30T05:34:25.038Z,996.59
2019-01-30T05:35:25.013Z,996.58
2019-01-30T05:36:25.108Z,996.53
2019-01-30T05:37:24.991Z,996.55
2019-01-30T05:38:25.040Z,996.57
2019-01-30T05:39:24.972Z,996.59
2019-01-30T05:40:24.961Z,996.59
2019-01-30T05:41:24.947Z,996.61
2019-01-30T05:42:24.938Z,996.67
2019-01-30T05:43:24.924Z,996.61
2019-01-30T05:44:24.916Z,996.68
2019-01-30T05:45:24.906Z,996.64
2019-01-30T05:46:24.890Z,996.68
2019-01-30T05:47:24.952Z,996.71
2019-01-30T05:48:24.871Z,996.69
2019-01-30T05:49:24.979Z,996.67
2019-01-30T05:50:24.857Z,996.72
2019-01-30T05:51:24.838Z,996.67
2019-01-30T05:52:24.828Z,996.69
2019-01-30T05:53:24.815Z,996.69
2019-01-30T05:54:24.807Z,996.67
2019-01-30T05:55:24.793Z,996.71
2019-01-30T05:56:24.787Z,996.71
2019-01-30T05:57:24.772Z,996.70
2019-01-30T05:58:24.761Z,996.70
2019-01-30T05:59:24.750Z,996.72
2019-01-30T06:00:24.739Z,996.69
2019-01-30T06:01:24.727Z,996.69
2019-01-30T06:02:24.720Z,996.70
2019-01-30T06:03:24.710Z,996.74
2019-01-30T06:04:24.696Z,996.70
2019-01-30T06:05:24.684Z,996.70
2019-01-30T06:06:24.674Z,996.74
2019-01-30T06:07:24.670Z,996.76
2019-01-30T06:08:24.660Z,996.74
2019-01-30T06:09:24.640Z,996.71
2019-01-30T06:10:24.630Z,996.72
2019-01-30T06:11:24.620Z,996.77
2019-01-30T06:12:24.609Z,996.70
2019-01-30T06:13:24.598Z,996.76
2019-01-30T06:14:24.587Z,996.81
2019-01-30T06:15:24.575Z,996.85
2019-01-30T06:16:24.565Z,996.85
2019-01-30T06:17:24.555Z,996.80
2019-01-30T06:18:24.542Z,996.82
2019-01-30T06:19:24.533Z,996.85
2019-01-30T06:20:24.526Z,996.83
2019-01-30T06:21:24.511Z,996.84
2019-01-30T06:22:24.498Z,996.81
2019-01-30T06:23:24.488Z,996.76
2019-01-30T06:24:24.485Z,996.76
2019-01-30T06:25:24.473Z,996.78
2019-01-30T06:26:24.458Z,996.82
2019-01-30T06:27:24.443Z,996.84
2019-01-30T06:28:28.740Z,996.81
2019-01-30T06:29:24.422Z,996.80
2019-01-30T06:30:24.411Z,996.80
2019-01-30T06:31:24.401Z,996.82
2019-01-30T06:32:24.389Z,996.89
2019-01-30T06:33:24.387Z,996.88
2019-01-30T06:34:24.366Z,996.84
2019-01-30T06:35:24.373Z,996.82
2019-01-30T06:36:24.349Z,996.88
2019-01-30T06:37:24.336Z,996.84
2019-01-30T06:38:24.335Z,996.85
2019-01-30T06:39:24.313Z,996.78
2019-01-30T06:40:24.302Z,996.85
2019-01-30T06:41:24.298Z,996.85
2019-01-30T06:42:24.282Z,996.83
2019-01-30T06:43:24.270Z,996.83
2019-01-30T06:44:24.282Z,996.85
2019-01-30T06:45:24.249Z,996.81
2019-01-30T06:46:24.240Z,996.81
2019-01-30T06:47:24.224Z,996.80
2019-01-30T06:48:24.213Z,996.84
2019-01-30T06:49:24.215Z,996.77
2019-01-30T06:50:24.196Z,996.78
2019-01-30T06:51:24.184Z,996.82
2019-01-30T06:52:24.172Z,996.80
2019-01-30T06:53:24.170Z,996.79
2019-01-30T06:54:24.179Z,996.82
2019-01-30T06:55:24.140Z,996.78
2019-01-30T06:56:24.128Z,996.77
2019-01-30T06:57:24.120Z,996.77
2019-01-30T06:58:24.108Z,996.78
2019-01-30T06:59:24.116Z,996.73
2019-01-30T07:00:24.095Z,996.75
2019-01-30T07:01:24.082Z,996.77
2019-01-30T07:02:32.064Z,996.78
2019-01-30T07:03:25.054Z,996.85
2019-01-30T07:04:24.048Z,996.75
2019-01-30T07:05:24.030Z,996.79
2019-01-30T07:06:24.025Z,996.73
2019-01-30T07:07:24.009Z,996.71
2019-01-30T07:08:23.996Z,996.68
2019-01-30T07:09:23.985Z,996.70
2019-01-30T07:10:23.977Z,996.71
2019-01-30T07:11:23.966Z,996.72
2019-01-30T07:12:23.952Z,996.67
2019-01-30T07:13:24.227Z,996.67
2019-01-30T07:14:23.932Z,996.67
2019-01-30T07:15:23.923Z,996.65
2019-01-30T07:16:23.915Z,996.69
2019-01-30T07:17:23.903Z,996.69
2019-01-30T07:18:23.891Z,996.72
2019-01-30T07:19:23.877Z,996.75
2019-01-30T07:20:23.866Z,996.69
2019-01-30T07:21:23.854Z,996.75
2019-01-30T07:22:23.861Z,996.77
2019-01-30T07:23:23.832Z,996.73
2019-01-30T07:24:23.823Z,996.79
2019-01-30T07:25:23.813Z,996.73
2019-01-30T07:26:23.804Z,996.75
2019-01-30T07:27:23.791Z,996.77
2019-01-30T07:28:23.780Z,996.75
2019-01-30T07:29:23.788Z,996.74
2019-01-30T07:30:23.760Z,996.70
2019-01-30T07:31:23.748Z,996.70
2019-01-30T07:32:23.735Z,996.66
2019-01-30T07:33:23.728Z,996.66
2019-01-30T07:34:23.718Z,996.64
2019-01-30T07:35:23.708Z,996.67
2019-01-30T07:36:23.691Z,996.61
2019-01-30T07:37:23.681Z,996.60
2019-01-30T07:38:23.715Z,996.67
2019-01-30T07:39:23.659Z,996.65
2019-01-30T07:40:23.676Z,996.63
2019-01-30T07:41:23.635Z,996.65
2019-01-30T07:42:23.627Z,996.66
2019-01-30T07:43:23.623Z,996.67
2019-01-30T07:44:23.609Z,996.66
2019-01-30T07:45:23.624Z,996.63
2019-01-30T07:46:23.582Z,996.63
2019-01-30T07:47:23.570Z,996.62
2019-01-30T07:48:26.362Z,996.62
2019-01-30T07:49:24.575Z,996.60
2019-01-30T07:50:23.554Z,996.65
2019-01-30T07:51:23.526Z,996.64
2019-01-30T07:52:23.515Z,996.61
2019-01-30T07:53:23.506Z,996.62
2019-01-30T07:54:23.493Z,996.66
2019-01-30T07:55:23.483Z,996.63
2019-01-30T07:56:23.472Z,996.72
2019-01-30T07:57:23.463Z,996.66
2019-01-30T07:58:23.456Z,996.65
2019-01-30T07:59:23.454Z,996.61
2019-01-30T08:00:23.428Z,996.62
2019-01-30T08:01:23.417Z,996.64
2019-01-30T08:02:23.405Z,996.62
2019-01-30T08:03:23.397Z,996.62
2019-01-30T08:04:23.391Z,996.59
2019-01-30T08:05:23.376Z,996.64
2019-01-30T08:06:23.362Z,996.61
2019-01-30T08:07:23.356Z,996.64
2019-01-30T08:08:23.340Z,996.63
2019-01-30T08:09:23.332Z,996.62
2019-01-30T08:10:23.319Z,996.61
2019-01-30T08:11:23.309Z,996.59
2019-01-30T08:12:23.302Z,996.57
2019-01-30T08:13:23.286Z,996.56
2019-01-30T08:14:23.275Z,996.58
2019-01-30T08:15:23.264Z,996.54
2019-01-30T08:16:23.255Z,996.58
2019-01-30T08:17:23.244Z,996.55
2019-01-30T08:18:23.232Z,996.54
2019-01-30T08:19:23.221Z,996.52
2019-01-30T08:20:23.208Z,996.58
2019-01-30T08:21:23.197Z,996.54
2019-01-30T08:22:23.188Z,996.58
2019-01-30T08:23:23.176Z,996.57
2019-01-30T08:24:23.409Z,996.52
2019-01-30T08:25:23.231Z,996.56
2019-01-30T08:26:25.561Z,996.57
2019-01-30T08:27:23.428Z,996.62
2019-01-30T08:28:23.590Z,996.59
2019-01-30T08:29:23.194Z,996.61
2019-01-30T08:30:23.531Z,996.59
2019-01-30T08:31:23.492Z,996.57
2019-01-30T08:32:23.554Z,996.62
2019-01-30T08:33:23.066Z,996.59
2019-01-30T08:34:23.062Z,996.60
2019-01-30T08:35:23.048Z,996.59
2019-01-30T08:36:23.034Z,996.56
2019-01-30T08:37:23.025Z,996.57
2019-01-30T08:38:23.011Z,996.57
2019-01-30T08:39:23.002Z,996.49
2019-01-30T08:40:22.989Z,996.57
2019-01-30T08:41:23.071Z,996.51
2019-01-30T08:42:22.969Z,996.53
2019-01-30T08:43:22.957Z,996.58
2019-01-30T08:44:22.944Z,996.55
2019-01-30T08:45:22.935Z,996.55
2019-01-30T08:46:22.929Z,996.56
2019-01-30T08:47:22.918Z,996.62
2019-01-30T08:48:22.902Z,996.49
2019-01-30T08:49:22.891Z,996.58
2019-01-30T08:50:22.886Z,996.55
2019-01-30T08:51:22.885Z,996.55
2019-01-30T08:52:22.872Z,996.53
2019-01-30T08:53:22.848Z,996.58
2019-01-30T08:54:22.841Z,996.53
2019-01-30T08:55:22.823Z,996.49
2019-01-30T08:56:22.817Z,996.51
2019-01-30T08:57:22.812Z,996.51
2019-01-30T08:58:22.799Z,996.54
2019-01-30T08:59:22.781Z,996.56
2019-01-30T09:00:22.771Z,996.53
2019-01-30T09:01:22.765Z,996.48
2019-01-30T09:02:22.747Z,996.48
2019-01-30T09:03:22.736Z,996.50
2019-01-30T09:04:22.725Z,996.53
2019-01-30T09:05:22.718Z,996.62
2019-01-30T09:06:22.704Z,996.51
2019-01-30T09:07:22.695Z,996.58
2019-01-30T09:08:22.699Z,996.59
2019-01-30T09:09:22.682Z,996.65
2019-01-30T09:10:22.659Z,996.61
2019-01-30T09:11:22.648Z,996.73
2019-01-30T09:12:22.637Z,996.58
2019-01-30T09:13:22.627Z,996.58
2019-01-30T09:14:22.617Z,996.58
2019-01-30T09:15:22.623Z,996.59
2019-01-30T09:16:22.597Z,996.60
2019-01-30T09:17:22.584Z,996.58
2019-01-30T09:18:22.571Z,996.61
2019-01-30T09:19:22.561Z,996.61
2019-01-30T09:20:22.552Z,996.68
2019-01-30T09:21:22.592Z,996.56
2019-01-30T09:22:22.528Z,996.61
2019-01-30T09:23:22.523Z,996.63
2019-01-30T09:24:22.513Z,996.71
2019-01-30T09:25:22.494Z,996.65
2019-01-30T09:26:22.485Z,996.63
2019-01-30T09:27:24.257Z,996.63
2019-01-30T09:28:22.462Z,996.63
2019-01-30T09:29:22.450Z,996.64
2019-01-30T09:30:22.440Z,996.66
2019-01-30T09:31:22.432Z,996.66
2019-01-30T09:32:22.431Z,996.64
2019-01-30T09:33:25.836Z,996.65
2019-01-30T09:34:22.396Z,996.63
2019-01-30T09:35:22.385Z,996.62
2019-01-30T09:36:22.375Z,996.65
2019-01-30T09:37:22.363Z,996.63
2019-01-30T09:38:22.381Z,996.65
2019-01-30T09:39:22.412Z,996.68
2019-01-30T09:40:22.329Z,996.67
2019-01-30T09:41:22.318Z,996.72
2019-01-30T09:42:22.307Z,996.64
2019-01-30T09:43:22.298Z,996.63
2019-01-30T09:44:22.285Z,996.65
2019-01-30T09:45:22.283Z,996.62
2019-01-30T09:46:22.263Z,996.66
2019-01-30T09:47:22.273Z,996.65
2019-01-30T09:48:22.244Z,996.63
2019-01-30T09:49:22.242Z,996.62
2019-01-30T09:50:22.220Z,996.59
2019-01-30T09:51:22.209Z,996.61
2019-01-30T09:52:26.961Z,996.53
2019-01-30T09:53:23.228Z,996.60
2019-01-30T09:54:22.176Z,996.56
2019-01-30T09:55:22.164Z,996.52
2019-01-30T09:56:22.155Z,996.49
2019-01-30T09:57:22.158Z,996.50
2019-01-30T09:58:23.862Z,996.46
2019-01-30T09:59:22.121Z,996.44
2019-01-30T10:00:22.116Z,996.47
2019-01-30T10:01:22.108Z,996.39
2019-01-30T10:02:22.087Z,996.43
2019-01-30T10:03:22.110Z,996.46
2019-01-30T10:04:22.075Z,996.49
2019-01-30T10:05:22.057Z,996.41
2019-01-30T10:06:22.055Z,996.44
2019-01-30T10:07:22.033Z,996.39
2019-01-30T10:08:22.022Z,996.44
2019-01-30T10:09:22.012Z,996.44
2019-01-30T10:10:22.000Z,996.33
2019-01-30T10:11:21.989Z,996.39
2019-01-30T10:12:21.980Z,996.39
2019-01-30T10:13:21.969Z,996.34
2019-01-30T10:14:21.956Z,996.39
2019-01-30T10:15:21.951Z,996.31
2019-01-30T10:16:21.936Z,996.37
2019-01-30T10:17:21.929Z,996.26
2019-01-30T10:18:21.912Z,996.27
2019-01-30T10:19:21.904Z,996.31
2019-01-30T10:20:21.892Z,996.30
2019-01-30T10:21:21.880Z,996.30
2019-01-30T10:22:21.871Z,996.30
2019-01-30T10:23:21.864Z,996.36
2019-01-30T10:24:21.846Z,996.37
2019-01-30T10:25:21.836Z,996.30
2019-01-30T10:26:21.825Z,996.30
2019-01-30T10:27:21.813Z,996.32
2019-01-30T10:28:21.803Z,996.28
2019-01-30T10:29:21.793Z,996.24
2019-01-30T10:30:21.784Z,996.16
2019-01-30T10:31:21.773Z,996.15
2019-01-30T10:32:21.759Z,996.13
2019-01-30T10:33:21.748Z,996.10
2019-01-30T10:34:21.815Z,996.19
2019-01-30T10:35:21.727Z,996.13
2019-01-30T10:36:21.755Z,996.15
2019-01-30T10:37:21.702Z,996.11
2019-01-30T10:38:21.693Z,996.16
2019-01-30T10:39:21.712Z,996.14
2019-01-30T10:40:21.677Z,996.11
2019-01-30T10:41:21.661Z,996.14
2019-01-30T10:42:21.651Z,996.06
2019-01-30T10:43:21.641Z,996.14
2019-01-30T10:44:21.624Z,996.02
2019-01-30T10:45:21.618Z,996.02
2019-01-30T10:46:21.603Z,996.03
2019-01-30T10:47:21.592Z,995.94
2019-01-30T10:48:21.581Z,995.90
2019-01-30T10:49:21.571Z,995.97
2019-01-30T10:50:21.558Z,995.92
2019-01-30T10:51:21.551Z,995.90
2019-01-30T10:52:21.537Z,995.93
2019-01-30T10:53:21.525Z,995.90
2019-01-30T10:54:21.518Z,996.10
2019-01-30T10:55:21.505Z,995.90
2019-01-30T10:56:21.498Z,995.89
2019-01-30T10:57:21.484Z,995.94
2019-01-30T10:58:21.488Z,995.94
2019-01-30T10:59:21.459Z,995.82
2019-01-30T11:00:21.446Z,995.89
2019-01-30T11:01:21.436Z,995.89
2019-01-30T11:02:21.430Z,995.89
2019-01-30T11:03:21.419Z,995.83
2019-01-30T11:04:21.412Z,995.84
2019-01-30T11:05:21.395Z,995.90
2019-01-30T11:06:21.380Z,995.87
2019-01-30T11:07:21.372Z,995.85
2019-01-30T11:08:21.359Z,995.82
2019-01-30T11:09:21.347Z,995.86
2019-01-30T11:10:21.336Z,995.83
2019-01-30T11:11:21.324Z,995.81
2019-01-30T11:12:21.314Z,995.90
2019-01-30T11:13:21.303Z,995.85
2019-01-30T11:14:21.295Z,995.85
2019-01-30T11:15:21.286Z,995.86
2019-01-30T11:16:21.272Z,995.83
2019-01-30T11:17:21.257Z,995.87
2019-01-30T11:18:21.249Z,995.83
2019-01-30T11:19:21.239Z,995.78
2019-01-30T11:20:22.030Z,995.83
2019-01-30T11:21:42.671Z,995.81
2019-01-30T11:23:03.251Z,995.73
2019-01-30T11:24:03.246Z,995.74
2019-01-30T11:25:05.613Z,995.77
2019-01-30T11:26:03.217Z,995.72
2019-01-30T11:27:03.208Z,995.77
2019-01-30T11:28:03.196Z,995.75
2019-01-30T11:29:22.831Z,995.78
2019-01-30T11:31:05.312Z,995.80
2019-01-30T11:34:40.648Z,995.78
2019-01-30T11:36:00.273Z,995.65
2019-01-30T11:37:22.677Z,995.70
2019-01-30T11:44:15.465Z,995.60
2019-01-30T11:45:15.438Z,995.62
2019-01-30T11:46:15.424Z,995.53
2019-01-30T11:47:15.412Z,995.52
2019-01-30T11:48:15.404Z,995.58
2019-01-30T11:49:15.391Z,995.50
2019-01-30T11:50:15.382Z,995.50
2019-01-30T11:51:15.376Z,995.51
2019-01-30T11:52:15.358Z,995.45
2019-01-30T11:53:15.349Z,995.47
2019-01-30T11:54:15.337Z,995.54
2019-01-30T11:55:15.325Z,995.60
2019-01-30T11:56:15.313Z,995.47
2019-01-30T11:57:15.339Z,995.56
2019-01-30T11:58:15.292Z,995.47
2019-01-30T11:59:15.281Z,995.47
2019-01-30T12:00:15.269Z,995.62
2019-01-30T12:01:15.261Z,995.46
2019-01-30T12:02:15.249Z,995.44
2019-01-30T12:03:15.236Z,995.38
2019-01-30T12:04:18.024Z,995.38
2019-01-30T12:05:15.216Z,995.38
2019-01-30T12:06:15.202Z,995.36
2019-01-30T12:07:15.193Z,995.28
2019-01-30T12:08:15.183Z,995.25
2019-01-30T12:09:15.171Z,995.36
2019-01-30T12:10:15.166Z,995.26
2019-01-30T12:11:15.147Z,995.21
2019-01-30T12:12:15.136Z,995.23
2019-01-30T12:13:15.133Z,995.20
2019-01-30T12:14:15.122Z,995.20
2019-01-30T12:15:15.104Z,995.30
2019-01-30T12:16:15.095Z,995.18
2019-01-30T12:17:15.080Z,995.26
2019-01-30T12:18:15.072Z,995.35
2019-01-30T12:19:15.059Z,995.25
2019-01-30T12:20:15.048Z,995.13
2019-01-30T12:21:15.037Z,995.25
2019-01-30T12:22:15.034Z,995.27
2019-01-30T12:23:15.016Z,995.16
2019-01-30T12:24:15.003Z,995.11
2019-01-30T12:25:14.993Z,995.13
2019-01-30T12:26:14.983Z,995.05
2019-01-30T12:27:14.978Z,995.11
2019-01-30T12:28:14.967Z,995.07
2019-01-30T12:29:14.946Z,995.03
2019-01-30T12:30:14.938Z,995.04
2019-01-30T12:31:14.930Z,995.07
2019-01-30T12:32:14.916Z,995.03
2019-01-30T12:33:14.906Z,995.07
2019-01-30T12:34:14.892Z,995.07
2019-01-30T12:35:14.881Z,995.04
2019-01-30T12:36:14.876Z,995.00
2019-01-30T12:37:14.858Z,995.03
2019-01-30T12:38:14.851Z,994.98
2019-01-30T12:39:14.835Z,994.95
2019-01-30T12:40:14.823Z,994.96
2019-01-30T12:41:14.816Z,994.96
2019-01-30T12:42:14.804Z,995.02
2019-01-30T12:43:14.790Z,994.94
2019-01-30T12:44:14.782Z,994.99
2019-01-30T12:45:14.769Z,994.91